Time;durP1;ratioP1;P1;durP2;ratioP2;P2;SDS_P1;SDS_P2;PMS_P1;PMS_P2;Temp;Humidity;BMP_temperature;BMP_pressure;BME280_temperature;BME280_humidity;BME280_pressure;Samples;Min_cycle;Max_cycle;Signal;HPM_P1;HPM_P2
2023/01/11 00:01:33;;;;;;;;;;;;;;;;;;5053888;28;19925;-68
2023/01/11 00:03:59;;;;;;;;;;;;;;;;;;5046888;28;20388;-68
2023/01/11 00:06:25;;;;;;;;;;;;;;;;;;5047585;28;19926;-67
2023/01/11 00:08:51;;;;;;;;;;;;;;;;;;5050588;28;19928;-68
2023/01/11 00:11:17;;;;;;;;;;;;;;;;;;5042458;28;20298;-68
2023/01/11 00:13:44;;;;;;;;;;;;;;;;;;5044127;28;20477;-69
2023/01/11 00:16:10;;;;;;;;;;;;;;;;;;5040803;28;20585;-68
2023/01/11 00:18:36;;;;;;;;;;;;;;;;;;5044296;28;20023;-68
2023/01/11 00:21:04;;;;;;;;;;;;;;;;;;5038344;28;19927;-69
2023/01/11 00:23:30;;;;;;;;;;;;;;;;;;5046760;28;20496;-68
2023/01/11 00:25:56;;;;;;;;;;;;;;;;;;5049700;28;19917;-69
2023/01/11 00:28:21;;;;;;;;;;;;;;;;;;5060509;28;19975;-69
2023/01/11 00:30:47;;;;;;;;;;;;;;;;;;5060530;28;20313;-68
2023/01/11 00:33:13;;;;;;;;;;;;;;;;;;5062821;28;19999;-68
2023/01/11 00:35:39;;;;;;;;;;;;;;;;;;5054752;28;19990;-68
2023/01/11 00:38:05;;;;;;;;;;;;;;;;;;5058554;28;19920;-69
2023/01/11 00:40:31;;;;;;;;;;;;;;;;;;5051250;28;19932;-69
2023/01/11 00:47:55;;;;;;;;;;;;;;;;;;5058580;28;19940;-69
2023/01/11 00:48:42;;;;;;;;;;;;;;;;;;5053316;28;19925;-68
2023/01/11 00:51:08;;;;;;;;;;;;;;;;;;5057663;28;19924;-69
2023/01/11 00:53:34;;;;;;;;;;;;;;;;;;5062770;28;19925;-68
2023/01/11 00:56:00;;;;;;;;;;;;;;;;;;5060367;28;20024;-68
2023/01/11 00:58:26;;;;;;;;;;;;;;;;;;5043750;28;20392;-68
2023/01/11 01:00:52;;;;;;;;;;;;;;;;;;5024578;28;21020;-68
2023/01/11 01:03:18;;;;;;;;;;;;;;;;;;5051039;28;20019;-70
2023/01/11 01:05:43;;;;;;;;;;;;;;;;;;5055176;28;20506;-69
2023/01/11 01:08:09;;;;;;;;;;;;;;;;;;5058265;28;19923;-69
2023/01/11 01:10:35;;;;;;;;;;;;;;;;;;5062404;28;20014;-68
2023/01/11 01:15:46;;;;;;;;;;;;;;;;;;5061386;28;19981;-69
2023/01/11 01:18:11;;;;;;;;;;;;;;;;;;5065167;28;19929;-68
2023/01/11 01:20:37;;;;;;;;;;;;;;;;;;5062552;28;19920;-69
2023/01/11 01:23:03;;;;;;;;;;;;;;;;;;5063624;28;20016;-70
2023/01/11 01:25:29;;;;;;;;;;;;;;;;;;5066001;28;20444;-69
2023/01/11 01:27:55;;;;;;;;;;;;;;;;;;5058249;28;19924;-69
2023/01/11 01:30:21;;;;;;;;;;;;;;;;;;5048868;28;19960;-69
2023/01/11 01:32:47;;;;;;;;;;;;;;;;;;5049945;28;19924;-70
2023/01/11 01:35:12;;;;;;;;;;;;;;;;;;5053995;28;20050;-68
2023/01/11 01:37:38;;;;;;;;;;;;;;;;;;5058577;28;20068;-69
2023/01/11 01:40:04;;;;;;;;;;;;;;;;;;5054214;28;20289;-69
2023/01/11 01:42:30;;;;;;;;;;;;;;;;;;5061403;28;20006;-69
2023/01/11 01:44:56;;;;;;;;;;;;;;;;;;5056064;28;19928;-68
2023/01/11 01:47:22;;;;;;;;;;;;;;;;;;5034686;28;20026;-68
2023/01/11 01:49:48;;;;;;;;;;;;;;;;;;5054824;28;19956;-70
2023/01/11 01:52:14;;;;;;;;;;;;;;;;;;5050726;28;20313;-69
2023/01/11 01:54:40;;;;;;;;;;;;;;;;;;5045812;28;19932;-68
2023/01/11 01:57:05;;;;;;;;;;;;;;;;;;5045550;28;19978;-69
2023/01/11 01:59:31;;;;;;;;;;;;;;;;;;5056861;28;19921;-68
2023/01/11 02:01:57;;;;;;;;;;;;;;;;;;5041443;28;20921;-69
2023/01/11 02:04:23;;;;;;;;;;;;;;;;;;5064897;28;19926;-70
2023/01/11 02:06:49;;;;;;;;;;;;;;;;;;5053702;28;20551;-68
2023/01/11 02:09:15;;;;;;;;;;;;;;;;;;5035973;28;19924;-69
2023/01/11 02:11:42;;;;;;;;;;;;;;;;;;5053210;28;20408;-69
2023/01/11 02:14:08;;;;;;;;;;;;;;;;;;5047378;28;19931;-67
2023/01/11 02:16:34;;;;;;;;;;;;;;;;;;5041525;28;19916;-68
2023/01/11 02:18:59;;;;;;;;;;;;;;;;;;5043921;28;20009;-69
2023/01/11 02:21:25;;;;;;;;;;;;;;;;;;5046189;28;20675;-70
2023/01/11 02:23:51;;;;;;;;;;;;;;;;;;5047390;28;19928;-69
2023/01/11 02:26:17;;;;;;;;;;;;;;;;;;5042136;28;20032;-69
2023/01/11 02:28:43;;;;;;;;;;;;;;;;;;5039421;28;19924;-68
2023/01/11 02:31:09;;;;;;;;;;;;;;;;;;5052095;28;20058;-68
2023/01/11 02:33:35;;;;;;;;;;;;;;;;;;5053774;28;19978;-68
2023/01/11 02:36:00;;;;;;;;;;;;;;;;;;5044516;28;19933;-69
2023/01/11 02:38:26;;;;;;;;;;;;;;;;;;5052003;28;20297;-68
2023/01/11 02:40:52;;;;;;;;;;;;;;;;;;5050774;28;19986;-68
2023/01/11 02:46:03;;;;;;;;;;;;;;;;;;5050243;28;20407;-70
2023/01/11 02:48:29;;;;;;;;;;;;;;;;;;5051625;28;20368;-69
2023/01/11 02:50:55;;;;;;;;;;;;;;;;;;5046159;28;20254;-69
2023/01/11 02:53:20;;;;;;;;;;;;;;;;;;5047180;28;20708;-68
2023/01/11 02:55:47;;;;;;;;;;;;;;;;;;5054474;28;19920;-69
2023/01/11 02:58:13;;;;;;;;;;;;;;;;;;5055739;28;19970;-69
2023/01/11 03:00:39;;;;;;;;;;;;;;;;;;5057821;28;19916;-69
2023/01/11 03:03:04;;;;;;;;;;;;;;;;;;5057688;28;20314;-70
2023/01/11 03:05:30;;;;;;;;;;;;;;;;;;5050007;28;19928;-68
2023/01/11 03:07:56;;;;;;;;;;;;;;;;;;5050167;28;19963;-69
2023/01/11 03:10:22;;;;;;;;;;;;;;;;;;5057034;28;19929;-68
2023/01/11 03:12:51;;;;;;;;;;;;;;;;;;5058577;28;20416;-67
2023/01/11 03:15:17;;;;;;;;;;;;;;;;;;5056764;28;20074;-69
2023/01/11 03:17:43;;;;;;;;;;;;;;;;;;5058007;28;20461;-69
2023/01/11 03:20:08;;;;;;;;;;;;;;;;;;5049412;28;19920;-69
2023/01/11 03:22:34;;;;;;;;;;;;;;;;;;5044198;28;20073;-69
2023/01/11 03:25:00;;;;;;;;;;;;;;;;;;5042683;28;19920;-69
2023/01/11 03:27:26;;;;;;;;;;;;;;;;;;5053952;28;20470;-70
2023/01/11 03:29:52;;;;;;;;;;;;;;;;;;5058610;28;19959;-70
2023/01/11 03:32:18;;;;;;;;;;;;;;;;;;5058548;28;19924;-68
2023/01/11 03:34:43;;;;;;;;;;;;;;;;;;5048338;28;19931;-68
2023/01/11 03:37:09;;;;;;;;;;;;;;;;;;5049330;28;20370;-70
2023/01/11 03:39:35;;;;;;;;;;;;;;;;;;5060985;28;20007;-67
2023/01/11 03:42:01;;;;;;;;;;;;;;;;;;5050439;28;20257;-70
2023/01/11 03:44:27;;;;;;;;;;;;;;;;;;5056267;28;19928;-70
2023/01/11 03:46:53;;;;;;;;;;;;;;;;;;5059122;28;19927;-69
2023/01/11 03:49:19;;;;;;;;;;;;;;;;;;5042521;28;20264;-70
2023/01/11 03:51:45;;;;;;;;;;;;;;;;;;5062030;28;19924;-68
2023/01/11 03:54:10;;;;;;;;;;;;;;;;;;5053452;28;20398;-67
2023/01/11 03:56:36;;;;;;;;;;;;;;;;;;5057383;28;19990;-68
2023/01/11 03:59:02;;;;;;;;;;;;;;;;;;5055171;28;19920;-68
2023/01/11 04:01:28;;;;;;;;;;;;;;;;;;5056674;28;19930;-69
2023/01/11 04:03:54;;;;;;;;;;;;;;;;;;5053934;28;19936;-68
2023/01/11 04:06:20;;;;;;;;;;;;;;;;;;5057647;28;19955;-68
2023/01/11 04:08:46;;;;;;;;;;;;;;;;;;5054995;28;19931;-68
2023/01/11 04:11:12;;;;;;;;;;;;;;;;;;5058562;28;19923;-67
2023/01/11 04:13:38;;;;;;;;;;;;;;;;;;5056205;28;19928;-67
2023/01/11 04:16:03;;;;;;;;;;;;;;;;;;5057571;28;19920;-68
2023/01/11 04:18:29;;;;;;;;;;;;;;;;;;5051269;28;21017;-69
2023/01/11 04:20:55;;;;;;;;;;;;;;;;;;5057954;28;19925;-68
2023/01/11 04:23:21;;;;;;;;;;;;;;;;;;5049676;28;19920;-70
2023/01/11 04:25:47;;;;;;;;;;;;;;;;;;5058583;28;19927;-68
2023/01/11 04:28:13;;;;;;;;;;;;;;;;;;5053644;28;19924;-69
2023/01/11 04:30:39;;;;;;;;;;;;;;;;;;5049162;28;19924;-69
2023/01/11 04:33:04;;;;;;;;;;;;;;;;;;5054091;28;20024;-69
2023/01/11 04:35:30;;;;;;;;;;;;;;;;;;5053333;28;19920;-67
2023/01/11 04:37:56;;;;;;;;;;;;;;;;;;5058816;28;19931;-69
2023/01/11 04:40:22;;;;;;;;;;;;;;;;;;5058199;28;20296;-67
2023/01/11 04:42:48;;;;;;;;;;;;;;;;;;5050851;28;20747;-68
2023/01/11 04:45:14;;;;;;;;;;;;;;;;;;5046167;28;19929;-67
2023/01/11 04:47:40;;;;;;;;;;;;;;;;;;5051377;28;20102;-68
2023/01/11 04:50:06;;;;;;;;;;;;;;;;;;5053062;28;19931;-69
2023/01/11 04:52:31;;;;;;;;;;;;;;;;;;5030350;28;20043;-70
2023/01/11 04:54:57;;;;;;;;;;;;;;;;;;5046902;28;19998;-67
2023/01/11 04:57:24;;;;;;;;;;;;;;;;;;5055687;28;21163;-68
2023/01/11 04:59:50;;;;;;;;;;;;;;;;;;5060628;28;20030;-70
2023/01/11 05:02:16;;;;;;;;;;;;;;;;;;5047061;28;19942;-68
2023/01/11 05:04:41;;;;;;;;;;;;;;;;;;5047966;28;19955;-68
2023/01/11 05:07:07;;;;;;;;;;;;;;;;;;5044824;28;20434;-68
2023/01/11 05:09:33;;;;;;;;;;;;;;;;;;5051144;28;19932;-68
2023/01/11 05:11:59;;;;;;;;;;;;;;;;;;5053887;28;19924;-69
2023/01/11 05:14:25;;;;;;;;;;;;;;;;;;5044468;28;20628;-67
2023/01/11 05:16:51;;;;;;;;;;;;;;;;;;5046807;28;19979;-69
2023/01/11 05:19:17;;;;;;;;;;;;;;;;;;5028593;28;19931;-67
2023/01/11 05:21:42;;;;;;;;;;;;;;;;;;5039643;28;20583;-67
2023/01/11 05:24:08;;;;;;;;;;;;;;;;;;5051610;28;19928;-68
2023/01/11 05:26:34;;;;;;;;;;;;;;;;;;5043034;28;19924;-67
2023/01/11 05:29:00;;;;;;;;;;;;;;;;;;5032280;28;19920;-68
2023/01/11 05:31:26;;;;;;;;;;;;;;;;;;5043924;28;20297;-69
2023/01/11 05:33:52;;;;;;;;;;;;;;;;;;5036902;28;20662;-69
2023/01/11 05:36:18;;;;;;;;;;;;;;;;;;5018721;28;20357;-67
2023/01/11 05:38:44;;;;;;;;;;;;;;;;;;4989612;28;19929;-68
2023/01/11 05:41:09;;;;;;;;;;;;;;;;;;5032836;28;19963;-68
2023/01/11 05:46:20;;;;;;;;;;;;;;;;;;5044209;28;19935;-71
2023/01/11 05:48:46;;;;;;;;;;;;;;;;;;5050049;28;19924;-69
2023/01/11 05:51:12;;;;;;;;;;;;;;;;;;5061294;27;20050;-69
2023/01/11 05:53:38;;;;;;;;;;;;;;;;;;5048605;28;20783;-69
2023/01/11 05:56:03;;;;;;;;;;;;;;;;;;5061240;28;19916;-68
2023/01/11 05:58:29;;;;;;;;;;;;;;;;;;5064786;28;19925;-68
2023/01/11 06:00:55;;;;;;;;;;;;;;;;;;5048550;28;19974;-68
2023/01/11 06:03:21;;;;;;;;;;;;;;;;;;5055304;28;20313;-68
2023/01/11 06:05:47;;;;;;;;;;;;;;;;;;5052739;28;19920;-69
2023/01/11 06:08:13;;;;;;;;;;;;;;;;;;5048458;28;20522;-69
2023/01/11 06:10:39;;;;;;;;;;;;;;;;;;5041055;28;20028;-68
2023/01/11 06:15:49;;;;;;;;;;;;;;;;;;5038533;28;19927;-68
2023/01/11 06:18:15;;;;;;;;;;;;;;;;;;5029066;28;19967;-67
2023/01/11 06:20:41;;;;;;;;;;;;;;;;;;5041822;28;19921;-67
2023/01/11 06:23:07;;;;;;;;;;;;;;;;;;5040621;28;19931;-69
2023/01/11 06:25:32;;;;;;;;;;;;;;;;;;5052776;28;20015;-68
2023/01/11 06:27:58;;;;;;;;;;;;;;;;;;5038132;28;19924;-68
2023/01/11 06:30:24;;;;;;;;;;;;;;;;;;5045766;28;19932;-69
2023/01/11 06:32:50;;;;;;;;;;;;;;;;;;5053700;28;20286;-69
2023/01/11 06:35:16;;;;;;;;;;;;;;;;;;5053436;28;20039;-68
2023/01/11 06:37:42;;;;;;;;;;;;;;;;;;5055269;28;19929;-67
2023/01/11 06:40:08;;;;;;;;;;;;;;;;;;5064155;28;20640;-68
2023/01/11 06:42:34;;;;;;;;;;;;;;;;;;5060447;28;19927;-69
2023/01/11 06:44:59;;;;;;;;;;;;;;;;;;5059417;28;19930;-69
2023/01/11 06:47:25;;;;;;;;;;;;;;;;;;5058907;28;19990;-69
2023/01/11 06:49:51;;;;;;;;;;;;;;;;;;5067014;28;19931;-68
2023/01/11 06:52:17;;;;;;;;;;;;;;;;;;5064812;28;19942;-70
2023/01/11 06:54:43;;;;;;;;;;;;;;;;;;5044235;28;19927;-69
2023/01/11 06:57:09;;;;;;;;;;;;;;;;;;5064902;28;19920;-70
2023/01/11 06:59:36;;;;;;;;;;;;;;;;;;5065188;28;19943;-70
2023/01/11 07:02:02;;;;;;;;;;;;;;;;;;5064039;28;19924;-69
2023/01/11 07:04:29;;;;;;;;;;;;;;;;;;5065991;28;20397;-70
2023/01/11 07:06:55;;;;;;;;;;;;;;;;;;5068375;28;19973;-69
2023/01/11 07:09:21;;;;;;;;;;;;;;;;;;5060534;28;19924;-68
2023/01/11 07:11:47;;;;;;;;;;;;;;;;;;5066439;28;20599;-69
2023/01/11 07:14:18;;;;;;;;;;;;;;;;;;5059951;28;19924;-69
2023/01/11 07:16:44;;;;;;;;;;;;;;;;;;5061210;28;20573;-69
2023/01/11 07:19:10;;;;;;;;;;;;;;;;;;5059729;28;20270;-70
2023/01/11 07:21:36;;;;;;;;;;;;;;;;;;5068572;28;20012;-69
2023/01/11 07:24:02;;;;;;;;;;;;;;;;;;5053149;28;19970;-69
2023/01/11 07:26:28;;;;;;;;;;;;;;;;;;5063364;28;19920;-69
2023/01/11 07:28:54;;;;;;;;;;;;;;;;;;5069410;28;21120;-69
2023/01/11 07:31:20;;;;;;;;;;;;;;;;;;5068604;28;20307;-69
2023/01/11 07:33:46;;;;;;;;;;;;;;;;;;5068206;28;19924;-69
2023/01/11 07:36:11;;;;;;;;;;;;;;;;;;5063127;28;20445;-70
2023/01/11 07:38:37;;;;;;;;;;;;;;;;;;5068831;28;19920;-69
2023/01/11 07:43:10;;;;;;;;;;;;;;;;;;5063278;28;19916;-69
2023/01/11 07:43:49;;;;;;;;;;;;;;;;;;5067115;28;19923;-69
2023/01/11 07:46:15;;;;;;;;;;;;;;;;;;5053373;28;20374;-70
2023/01/11 07:48:41;;;;;;;;;;;;;;;;;;5053431;28;20572;-69
2023/01/11 07:51:07;;;;;;;;;;;;;;;;;;5062069;28;19920;-69
2023/01/11 07:53:32;;;;;;;;;;;;;;;;;;5065392;28;20051;-70
2023/01/11 07:55:58;;;;;;;;;;;;;;;;;;5065418;28;19951;-69
2023/01/11 07:58:24;;;;;;;;;;;;;;;;;;5038504;28;19924;-69
2023/01/11 08:00:50;;;;;;;;;;;;;;;;;;5058950;28;19924;-69
2023/01/11 08:03:16;;;;;;;;;;;;;;;;;;5054476;28;19921;-69
2023/01/11 08:05:42;;;;;;;;;;;;;;;;;;5056408;28;19920;-70
2023/01/11 08:08:08;;;;;;;;;;;;;;;;;;5062457;28;19951;-68
2023/01/11 08:10:34;;;;;;;;;;;;;;;;;;5062793;28;20132;-68
2023/01/11 08:15:44;;;;;;;;;;;;;;;;;;5064045;28;19985;-68
2023/01/11 08:18:10;;;;;;;;;;;;;;;;;;5056799;28;19916;-68
2023/01/11 08:20:36;;;;;;;;;;;;;;;;;;5060704;28;19924;-69
2023/01/11 08:23:02;;;;;;;;;;;;;;;;;;5058612;28;19921;-69
2023/01/11 08:25:28;;;;;;;;;;;;;;;;;;5059328;28;20119;-69
2023/01/11 08:27:54;;;;;;;;;;;;;;;;;;5066332;28;20001;-69
2023/01/11 08:30:19;;;;;;;;;;;;;;;;;;5066449;28;19916;-69
2023/01/11 08:32:45;;;;;;;;;;;;;;;;;;5065076;28;20261;-67
2023/01/11 08:35:11;;;;;;;;;;;;;;;;;;5064925;28;19999;-68
2023/01/11 08:37:37;;;;;;;;;;;;;;;;;;5053042;28;20323;-69
2023/01/11 08:40:03;;;;;;;;;;;;;;;;;;5060888;28;19916;-68
2023/01/11 08:42:29;;;;;;;;;;;;;;;;;;5056446;28;19921;-68
2023/01/11 08:44:55;;;;;;;;;;;;;;;;;;5063741;28;19963;-68
2023/01/11 08:47:21;;;;;;;;;;;;;;;;;;5067009;28;19940;-70
2023/01/11 08:49:47;;;;;;;;;;;;;;;;;;5068981;28;19966;-69
2023/01/11 08:52:13;;;;;;;;;;;;;;;;;;5061746;28;20480;-68
2023/01/11 08:54:39;;;;;;;;;;;;;;;;;;5068593;28;19924;-69
2023/01/11 08:57:04;;;;;;;;;;;;;;;;;;5061373;28;20021;-69
2023/01/11 08:59:30;;;;;;;;;;;;;;;;;;5067588;28;20331;-68
2023/01/11 09:01:56;;;;;;;;;;;;;;;;;;5069165;28;19927;-70
2023/01/11 09:04:23;;;;;;;;;;;;;;;;;;5066222;28;20409;-69
2023/01/11 09:06:49;;;;;;;;;;;;;;;;;;5068063;28;19924;-69
2023/01/11 09:09:15;;;;;;;;;;;;;;;;;;5068819;28;20435;-70
2023/01/11 09:11:54;;;;;;;;;;;;;;;;;;5071040;28;19931;-69
2023/01/11 09:14:19;;;;;;;;;;;;;;;;;;5066942;28;19921;-70
2023/01/11 09:16:45;;;;;;;;;;;;;;;;;;5056947;28;19924;-68
2023/01/11 09:19:11;;;;;;;;;;;;;;;;;;5070815;28;19932;-70
2023/01/11 09:21:37;;;;;;;;;;;;;;;;;;5058054;28;20207;-70
2023/01/11 09:24:03;;;;;;;;;;;;;;;;;;5064496;28;20399;-68
2023/01/11 09:26:29;;;;;;;;;;;;;;;;;;5065724;28;19924;-68
2023/01/11 09:28:55;;;;;;;;;;;;;;;;;;5071040;28;19922;-69
2023/01/11 09:31:21;;;;;;;;;;;;;;;;;;5068676;28;20361;-69
2023/01/11 09:33:47;;;;;;;;;;;;;;;;;;5060183;28;19916;-70
2023/01/11 09:36:13;;;;;;;;;;;;;;;;;;5060866;28;19920;-69
2023/01/11 09:38:39;;;;;;;;;;;;;;;;;;5070406;28;19925;-70
2023/01/11 09:41:07;;;;;;;;;;;;;;;;;;5067586;28;19916;-68
2023/01/11 09:43:33;;;;;;;;;;;;;;;;;;5067158;28;20381;-68
2023/01/11 09:45:59;;;;;;;;;;;;;;;;;;5065063;28;20018;-70
2023/01/11 09:48:29;;;;;;;;;;;;;;;;;;5067013;28;19930;-69
2023/01/11 09:50:56;;;;;;;;;;;;;;;;;;5069031;28;19924;-70
2023/01/11 09:53:30;;;;;;;;;;;;;;;;;;5065157;28;20458;-69
2023/01/11 09:55:58;;;;;;;;;;;;;;;;;;5062704;28;19954;-70
2023/01/11 09:58:27;;;;;;;;;;;;;;;;;;5061480;28;19921;-69
2023/01/11 10:00:53;;;;;;;;;;;;;;;;;;5050728;28;19920;-69
2023/01/11 10:03:19;;;;;;;;;;;;;;;;;;5057184;28;19924;-68
2023/01/11 10:05:50;;;;;;;;;;;;;;;;;;5070563;27;20236;-69
2023/01/11 10:08:20;;;;;;;;;;;;;;;;;;5065155;28;19921;-68
2023/01/11 10:10:50;;;;;;;;;;;;;;;;;;5069274;28;20266;-69
2023/01/11 10:13:16;;;;;;;;;;;;;;;;;;5055286;28;20331;-69
2023/01/11 10:15:42;;;;;;;;;;;;;;;;;;5064813;28;19924;-69
2023/01/11 10:18:12;;;;;;;;;;;;;;;;;;5064394;28;19924;-68
2023/01/11 10:20:40;;;;;;;;;;;;;;;;;;5066156;28;19924;-69
2023/01/11 10:23:07;;;;;;;;;;;;;;;;;;5069136;28;20367;-70
2023/01/11 10:25:40;;;;;;;;;;;;;;;;;;5068070;28;19951;-67
2023/01/11 10:28:06;;;;;;;;;;;;;;;;;;5067552;28;19981;-69
2023/01/11 10:30:36;;;;;;;;;;;;;;;;;;5068041;28;19924;-70
2023/01/11 10:33:13;;;;;;;;;;;;;;;;;;5066540;28;19939;-69
2023/01/11 10:38:42;;;;;;;;;;;;;;;;;;5064645;28;21364;-69
2023/01/11 10:41:13;;;;;;;;;;;;;;;;;;5069594;28;19920;-68
2023/01/11 10:43:39;;;;;;;;;;;;;;;;;;5057902;28;19921;-70
2023/01/11 10:46:05;;;;;;;;;;;;;;;;;;5059707;28;20269;-69
2023/01/11 10:48:32;;;;;;;;;;;;;;;;;;5067963;28;20074;-70
2023/01/11 10:50:57;;;;;;;;;;;;;;;;;;5050032;28;20437;-70
2023/01/11 10:53:23;;;;;;;;;;;;;;;;;;5063818;28;19953;-70
2023/01/11 10:55:49;;;;;;;;;;;;;;;;;;5067257;28;19956;-69
2023/01/11 10:58:15;;;;;;;;;;;;;;;;;;5062682;28;19923;-68
2023/01/11 11:00:41;;;;;;;;;;;;;;;;;;5066420;28;20063;-69
2023/01/11 11:03:07;;;;;;;;;;;;;;;;;;5066107;28;20423;-68
2023/01/11 11:05:33;;;;;;;;;;;;;;;;;;5050960;28;20024;-68
2023/01/11 11:07:59;;;;;;;;;;;;;;;;;;5068297;28;19924;-69
2023/01/11 11:10:25;;;;;;;;;;;;;;;;;;5060660;28;19938;-68
2023/01/11 11:12:50;;;;;;;;;;;;;;;;;;5065208;28;19925;-69
2023/01/11 11:15:17;;;;;;;;;;;;;;;;;;5055946;28;19916;-69
2023/01/11 11:17:43;;;;;;;;;;;;;;;;;;5052985;28;19943;-69
2023/01/11 11:20:09;;;;;;;;;;;;;;;;;;5059067;28;19968;-70
2023/01/11 11:22:35;;;;;;;;;;;;;;;;;;5053421;28;20304;-68
2023/01/11 11:25:01;;;;;;;;;;;;;;;;;;5064325;28;19931;-70
2023/01/11 11:27:26;;;;;;;;;;;;;;;;;;5052469;28;20624;-69
2023/01/11 11:29:52;;;;;;;;;;;;;;;;;;5058268;28;20032;-69
2023/01/11 11:32:18;;;;;;;;;;;;;;;;;;5061504;28;19928;-70
2023/01/11 11:34:44;;;;;;;;;;;;;;;;;;5053873;28;20297;-68
2023/01/11 11:37:10;;;;;;;;;;;;;;;;;;5060612;28;19931;-69
2023/01/11 11:39:36;;;;;;;;;;;;;;;;;;5063801;28;20397;-69
2023/01/11 11:42:02;;;;;;;;;;;;;;;;;;5060356;28;19924;-70
2023/01/11 11:44:30;;;;;;;;;;;;;;;;;;5060933;28;22123;-67
2023/01/11 11:46:56;;;;;;;;;;;;;;;;;;5063803;28;19921;-69
2023/01/11 11:49:22;;;;;;;;;;;;;;;;;;5060605;28;19923;-69
2023/01/11 11:51:48;;;;;;;;;;;;;;;;;;5065505;28;19932;-69
2023/01/11 11:54:14;;;;;;;;;;;;;;;;;;5058610;28;20429;-69
2023/01/11 11:56:40;;;;;;;;;;;;;;;;;;5064147;28;19924;-68
2023/01/11 11:59:06;;;;;;;;;;;;;;;;;;5057530;28;19924;-69
2023/01/11 12:01:32;;;;;;;;;;;;;;;;;;5051753;28;19931;-69
2023/01/11 12:03:58;;;;;;;;;;;;;;;;;;5068595;28;19954;-68
2023/01/11 12:06:24;;;;;;;;;;;;;;;;;;5068984;28;20341;-68
2023/01/11 12:08:50;;;;;;;;;;;;;;;;;;5060612;28;20361;-67
2023/01/11 12:11:16;;;;;;;;;;;;;;;;;;5061873;28;20047;-67
2023/01/11 12:13:42;;;;;;;;;;;;;;;;;;5052250;28;20435;-68
2023/01/11 12:16:07;;;;;;;;;;;;;;;;;;5059110;28;20241;-68
2023/01/11 12:18:34;;;;;;;;;;;;;;;;;;5056980;28;19932;-68
2023/01/11 12:21:00;;;;;;;;;;;;;;;;;;5058706;28;19920;-68
2023/01/11 12:23:26;;;;;;;;;;;;;;;;;;5060502;28;20642;-68
2023/01/11 12:25:52;;;;;;;;;;;;;;;;;;5060445;28;19924;-68
2023/01/11 12:28:18;;;;;;;;;;;;;;;;;;5059404;28;19959;-69
2023/01/11 12:30:44;;;;;;;;;;;;;;;;;;5053856;28;19921;-68
2023/01/11 12:33:10;;;;;;;;;;;;;;;;;;5063905;28;19930;-69
2023/01/11 12:35:36;;;;;;;;;;;;;;;;;;5058326;28;19924;-69
2023/01/11 12:38:01;;;;;;;;;;;;;;;;;;5058823;28;20321;-68
2023/01/11 12:40:27;;;;;;;;;;;;;;;;;;5052092;28;20352;-68
2023/01/11 12:42:53;;;;;;;;;;;;;;;;;;5062646;28;19932;-68
2023/01/11 12:45:19;;;;;;;;;;;;;;;;;;5056876;28;19925;-69
2023/01/11 12:47:45;;;;;;;;;;;;;;;;;;5052378;28;19967;-68
2023/01/11 12:50:11;;;;;;;;;;;;;;;;;;5052614;28;20558;-68
2023/01/11 12:52:38;;;;;;;;;;;;;;;;;;5056004;28;19970;-70
2023/01/11 12:55:03;;;;;;;;;;;;;;;;;;5051157;28;20871;-67
2023/01/11 12:57:29;;;;;;;;;;;;;;;;;;5045683;28;19931;-68
2023/01/11 12:59:55;;;;;;;;;;;;;;;;;;5037010;28;20340;-69
2023/01/11 13:02:21;;;;;;;;;;;;;;;;;;5031424;28;19924;-68
2023/01/11 13:04:47;;;;;;;;;;;;;;;;;;5051551;28;20011;-69
2023/01/11 13:07:13;;;;;;;;;;;;;;;;;;5051675;28;19924;-69
2023/01/11 13:09:39;;;;;;;;;;;;;;;;;;5056013;28;19920;-68
2023/01/11 13:12:05;;;;;;;;;;;;;;;;;;5052273;28;19920;-68
2023/01/11 13:14:31;;;;;;;;;;;;;;;;;;5044662;28;20357;-68
2023/01/11 13:16:57;;;;;;;;;;;;;;;;;;5048963;28;19916;-69
2023/01/11 13:19:22;;;;;;;;;;;;;;;;;;5049415;28;19931;-69
2023/01/11 13:21:52;;;;;;;;;;;;;;;;;;5045917;28;19960;-68
2023/01/11 13:24:18;;;;;;;;;;;;;;;;;;5053798;28;20445;-68
2023/01/11 13:26:44;;;;;;;;;;;;;;;;;;5048164;28;19924;-68
2023/01/11 13:29:09;;;;;;;;;;;;;;;;;;5054539;28;19925;-67
2023/01/11 13:31:35;;;;;;;;;;;;;;;;;;5052918;28;20256;-68
2023/01/11 13:34:01;;;;;;;;;;;;;;;;;;5047611;28;20344;-69
2023/01/11 13:36:27;;;;;;;;;;;;;;;;;;5040434;28;20587;-68
2023/01/11 13:38:53;;;;;;;;;;;;;;;;;;5053674;28;19949;-68
2023/01/11 13:41:19;;;;;;;;;;;;;;;;;;5057123;28;19920;-66
2023/01/11 13:43:45;;;;;;;;;;;;;;;;;;5067866;28;19920;-66
2023/01/11 13:46:11;;;;;;;;;;;;;;;;;;5052062;28;19928;-68
2023/01/11 13:48:36;;;;;;;;;;;;;;;;;;5042463;28;19921;-68
2023/01/11 13:51:03;;;;;;;;;;;;;;;;;;5042257;28;20140;-68
2023/01/11 13:53:29;;;;;;;;;;;;;;;;;;5039489;28;19916;-68
2023/01/11 13:55:55;;;;;;;;;;;;;;;;;;5057938;28;19920;-68
2023/01/11 13:58:22;;;;;;;;;;;;;;;;;;5057042;28;20285;-69
2023/01/11 14:00:48;;;;;;;;;;;;;;;;;;5048562;28;20348;-69
2023/01/11 14:03:14;;;;;;;;;;;;;;;;;;5048596;28;19920;-67
2023/01/11 14:05:40;;;;;;;;;;;;;;;;;;5040921;28;20361;-68
2023/01/11 14:08:06;;;;;;;;;;;;;;;;;;5055459;28;20053;-67
2023/01/11 14:10:32;;;;;;;;;;;;;;;;;;5041923;28;19938;-69
2023/01/11 14:12:57;;;;;;;;;;;;;;;;;;5040611;28;20023;-68
2023/01/11 14:15:25;;;;;;;;;;;;;;;;;;5054049;28;19924;-68
2023/01/11 14:17:51;;;;;;;;;;;;;;;;;;5053715;28;20263;-68
2023/01/11 14:20:17;;;;;;;;;;;;;;;;;;5055213;28;20441;-68
2023/01/11 14:22:42;;;;;;;;;;;;;;;;;;5038581;28;19935;-66
2023/01/11 14:25:08;;;;;;;;;;;;;;;;;;5048240;28;19928;-68
2023/01/11 14:27:34;;;;;;;;;;;;;;;;;;5063113;28;20459;-68
2023/01/11 14:30:00;;;;;;;;;;;;;;;;;;5035367;28;19960;-68
2023/01/11 14:32:26;;;;;;;;;;;;;;;;;;5036605;28;20256;-69
2023/01/11 14:34:52;;;;;;;;;;;;;;;;;;5034468;28;20426;-68
2023/01/11 14:37:18;;;;;;;;;;;;;;;;;;5054754;28;19973;-68
2023/01/11 14:39:43;;;;;;;;;;;;;;;;;;5055827;28;20372;-68
2023/01/11 14:42:09;;;;;;;;;;;;;;;;;;5061735;28;19948;-68
2023/01/11 14:44:35;;;;;;;;;;;;;;;;;;5060153;28;20797;-70
2023/01/11 14:47:01;;;;;;;;;;;;;;;;;;5063608;28;19963;-69
2023/01/11 14:49:27;;;;;;;;;;;;;;;;;;5064543;28;19924;-68
2023/01/11 14:51:53;;;;;;;;;;;;;;;;;;5063574;28;20711;-67
2023/01/11 14:54:20;;;;;;;;;;;;;;;;;;5062033;28;19927;-69
2023/01/11 14:56:46;;;;;;;;;;;;;;;;;;5061321;28;19920;-69
2023/01/11 14:59:12;;;;;;;;;;;;;;;;;;5061032;28;19962;-68
2023/01/11 15:01:38;;;;;;;;;;;;;;;;;;5054570;28;20436;-69
2023/01/11 15:04:04;;;;;;;;;;;;;;;;;;5068032;28;19916;-69
2023/01/11 15:06:30;;;;;;;;;;;;;;;;;;5059338;28;19924;-69
2023/01/11 15:08:55;;;;;;;;;;;;;;;;;;5069894;28;20070;-69
2023/01/11 15:11:21;;;;;;;;;;;;;;;;;;5062430;28;20050;-69
2023/01/11 15:13:50;;;;;;;;;;;;;;;;;;5065592;28;20285;-69
2023/01/11 15:19:00;;;;;;;;;;;;;;;;;;5059112;28;20000;-69
2023/01/11 15:21:26;;;;;;;;;;;;;;;;;;5047572;28;19921;-69
2023/01/11 15:23:53;;;;;;;;;;;;;;;;;;5054856;28;19924;-69
2023/01/11 15:26:19;;;;;;;;;;;;;;;;;;5062362;28;19960;-69
2023/01/11 15:28:45;;;;;;;;;;;;;;;;;;5064932;28;19919;-68
2023/01/11 15:31:10;;;;;;;;;;;;;;;;;;5058363;28;20385;-68
2023/01/11 15:33:36;;;;;;;;;;;;;;;;;;5061148;28;19927;-68
2023/01/11 15:36:02;;;;;;;;;;;;;;;;;;5060743;28;19924;-68
2023/01/11 15:38:29;;;;;;;;;;;;;;;;;;5058902;28;19924;-68
2023/01/11 15:40:55;;;;;;;;;;;;;;;;;;5056665;28;20018;-68
2023/01/11 15:43:21;;;;;;;;;;;;;;;;;;5058823;28;19921;-68
2023/01/11 15:48:31;;;;;;;;;;;;;;;;;;5063454;28;19970;-70
2023/01/11 15:50:57;;;;;;;;;;;;;;;;;;5060169;28;20424;-67
2023/01/11 15:53:23;;;;;;;;;;;;;;;;;;5055864;28;19924;-68
2023/01/11 15:55:49;;;;;;;;;;;;;;;;;;5054333;28;20228;-68
2023/01/11 15:58:15;;;;;;;;;;;;;;;;;;5062916;28;19924;-69
2023/01/11 16:00:40;;;;;;;;;;;;;;;;;;5055403;28;19924;-69
2023/01/11 16:03:06;;;;;;;;;;;;;;;;;;5059571;28;20373;-69
2023/01/11 16:05:32;;;;;;;;;;;;;;;;;;5051205;28;19928;-68
2023/01/11 16:07:58;;;;;;;;;;;;;;;;;;5058699;28;19916;-68
2023/01/11 16:10:26;;;;;;;;;;;;;;;;;;5056432;28;19924;-68
2023/01/11 16:12:52;;;;;;;;;;;;;;;;;;5054040;28;19959;-69
2023/01/11 16:15:18;;;;;;;;;;;;;;;;;;5044268;28;20012;-68
2023/01/11 16:17:44;;;;;;;;;;;;;;;;;;5046115;28;19939;-68
2023/01/11 16:20:10;;;;;;;;;;;;;;;;;;5044357;28;19924;-68
2023/01/11 16:22:35;;;;;;;;;;;;;;;;;;5039862;28;19925;-68
2023/01/11 16:25:01;;;;;;;;;;;;;;;;;;5040962;28;19971;-69
2023/01/11 16:27:27;;;;;;;;;;;;;;;;;;5041242;28;20388;-68
2023/01/11 16:29:53;;;;;;;;;;;;;;;;;;5037821;28;19920;-69
2023/01/11 16:32:19;;;;;;;;;;;;;;;;;;5052606;28;20390;-68
2023/01/11 16:34:46;;;;;;;;;;;;;;;;;;5049691;28;19986;-67
2023/01/11 16:37:12;;;;;;;;;;;;;;;;;;5055134;28;20353;-69
2023/01/11 16:39:38;;;;;;;;;;;;;;;;;;5037994;28;19923;-69
2023/01/11 16:42:04;;;;;;;;;;;;;;;;;;5043749;28;19928;-69
2023/01/11 16:44:32;;;;;;;;;;;;;;;;;;5036104;28;19943;-69
2023/01/11 16:46:57;;;;;;;;;;;;;;;;;;5036704;28;20014;-67
2023/01/11 16:49:23;;;;;;;;;;;;;;;;;;5044551;28;19922;-68
2023/01/11 16:51:49;;;;;;;;;;;;;;;;;;5045706;28;19924;-68
2023/01/11 16:54:15;;;;;;;;;;;;;;;;;;5045582;28;20397;-68
2023/01/11 16:56:43;;;;;;;;;;;;;;;;;;5037910;28;19959;-68
2023/01/11 16:59:09;;;;;;;;;;;;;;;;;;5050806;28;19924;-67
2023/01/11 17:01:35;;;;;;;;;;;;;;;;;;5047343;28;20755;-68
2023/01/11 17:04:01;;;;;;;;;;;;;;;;;;5045148;28;19928;-69